Time;durP1;ratioP1;P1;durP2;ratioP2;P2;SDS_P1;SDS_P2;PMS_P1;PMS_P2;Temp;Humidity;BMP_temperature;BMP_pressure;BME280_temperature;BME280_humidity;BME280_pressure;Samples;Min_cycle;Max_cycle;Signal;HPM_P1;HPM_P2
2023/10/23 00:02:18;;;;;;;2.00;1.80;;;22.60;44.30;;;;;;5010889;28;20213;-45
2023/10/23 00:04:45;;;;;;;2.33;1.60;;;22.60;44.30;;;;;;5014238;28;20207;-45
2023/10/23 00:07:11;;;;;;;2.40;1.63;;;22.60;44.40;;;;;;5014722;28;20231;-45
2023/10/23 00:09:38;;;;;;;2.90;2.05;;;22.60;44.40;;;;;;5010042;28;20210;-45
2023/10/23 00:12:04;;;;;;;2.25;1.63;;;22.60;44.40;;;;;;5014394;28;20211;-45
2023/10/23 00:14:31;;;;;;;1.80;1.65;;;22.60;44.40;;;;;;5012439;28;20241;-45
2023/10/23 00:16:57;;;;;;;1.75;1.52;;;22.60;44.40;;;;;;5013783;28;20199;-45
2023/10/23 00:19:23;;;;;;;3.85;2.10;;;22.60;44.40;;;;;;5013902;28;20206;-45
2023/10/23 00:21:50;;;;;;;2.90;1.80;;;22.60;44.30;;;;;;5014050;28;20652;-45
2023/10/23 00:24:16;;;;;;;2.45;1.90;;;22.60;44.30;;;;;;5014331;28;20231;-45
2023/10/23 00:26:43;;;;;;;1.92;1.80;;;22.60;44.30;;;;;;5010433;28;20217;-45
2023/10/23 00:29:09;;;;;;;3.75;1.85;;;22.60;44.30;;;;;;5013927;28;20235;-45
2023/10/23 00:31:35;;;;;;;2.90;1.85;;;22.60;44.30;;;;;;5012866;28;20213;-45
2023/10/23 00:34:02;;;;;;;2.42;1.70;;;22.60;44.30;;;;;;5013544;28;20229;-45
2023/10/23 00:36:28;;;;;;;2.10;2.00;;;22.60;44.30;;;;;;5013248;28;20210;-46
2023/10/23 00:38:55;;;;;;;2.03;1.30;;;22.60;44.30;;;;;;5013176;28;20215;-46
2023/10/23 00:41:21;;;;;;;2.10;1.55;;;22.60;44.30;;;;;;5013822;28;20657;-45
2023/10/23 00:43:48;;;;;;;2.63;1.83;;;22.60;44.30;;;;;;5010384;28;20223;-46
2023/10/23 00:46:14;;;;;;;2.08;1.80;;;22.60;44.30;;;;;;5013581;28;20199;-46
2023/10/23 00:48:40;;;;;;;1.65;1.55;;;22.60;44.30;;;;;;5013439;28;20235;-45
2023/10/23 00:51:07;;;;;;;3.00;1.70;;;22.60;44.30;;;;;;5011374;28;20199;-45
2023/10/23 00:53:33;;;;;;;2.05;1.70;;;22.60;44.30;;;;;;5012645;28;20227;-45
2023/10/23 00:56:00;;;;;;;3.70;2.03;;;22.60;44.30;;;;;;5013715;28;20211;-45
2023/10/23 00:58:26;;;;;;;1.85;1.70;;;22.60;44.30;;;;;;5013402;28;20221;-45
2023/10/23 01:00:53;;;;;;;1.98;1.58;;;22.60;44.30;;;;;;5009763;28;20581;-46
2023/10/23 01:03:19;;;;;;;2.30;1.67;;;22.60;44.30;;;;;;5013383;28;20695;-46
2023/10/23 01:05:45;;;;;;;2.50;1.80;;;22.60;44.30;;;;;;5013111;28;20200;-45
2023/10/23 01:08:12;;;;;;;1.88;1.70;;;22.60;44.20;;;;;;5013096;28;20238;-45
2023/10/23 01:10:38;;;;;;;1.88;1.55;;;22.60;44.30;;;;;;5011735;28;20203;-45
2023/10/23 01:13:05;;;;;;;1.88;1.52;;;22.60;44.30;;;;;;5012255;28;20219;-45
2023/10/23 01:15:31;;;;;;;2.08;1.42;;;22.60;44.20;;;;;;5008288;28;20210;-45
2023/10/23 01:17:59;;;;;;;1.70;1.48;;;22.60;44.30;;;;;;5011253;28;20203;-45
2023/10/23 01:20:26;;;;;;;3.42;1.80;;;22.60;44.30;;;;;;5011951;28;20630;-45
2023/10/23 01:22:52;;;;;;;2.65;1.65;;;22.60;44.30;;;;;;5013187;28;20227;-45
2023/10/23 01:25:19;;;;;;;2.72;1.90;;;22.60;44.30;;;;;;5010308;28;20207;-45
2023/10/23 01:27:45;;;;;;;2.38;1.50;;;22.60;44.30;;;;;;5012298;28;20233;-45
2023/10/23 01:30:11;;;;;;;2.00;1.67;;;22.50;44.20;;;;;;5012638;28;20203;-45
2023/10/23 01:32:38;;;;;;;2.35;1.52;;;22.60;44.30;;;;;;5013081;28;20249;-45
2023/10/23 01:35:04;;;;;;;2.40;1.80;;;22.60;44.30;;;;;;5008500;28;20853;-45
2023/10/23 01:37:31;;;;;;;1.80;1.70;;;22.60;44.20;;;;;;5012645;28;20219;-45
2023/10/23 01:39:57;;;;;;;1.50;1.40;;;22.60;44.20;;;;;;5011291;28;20213;-45
2023/10/23 01:42:26;;;;;;;2.03;1.60;;;22.60;44.20;;;;;;5012897;28;20267;-45
2023/10/23 01:44:53;;;;;;;1.95;1.75;;;22.60;44.20;;;;;;5009412;28;20286;-45
2023/10/23 01:47:19;;;;;;;2.55;1.80;;;22.60;44.20;;;;;;5011787;28;20211;-45
2023/10/23 01:49:46;;;;;;;1.80;1.50;;;22.60;44.20;;;;;;5011036;28;20663;-45
2023/10/23 01:52:12;;;;;;;3.78;1.80;;;22.60;44.20;;;;;;5011785;28;20233;-46
2023/10/23 01:54:38;;;;;;;2.08;1.70;;;22.60;44.90;;;;;;5011951;28;20195;-43
2023/10/23 01:57:05;;;;;;;2.22;1.60;;;22.60;44.20;;;;;;5012462;28;20207;-45
2023/10/23 01:59:31;;;;;;;2.03;1.73;;;22.60;44.20;;;;;;5012141;28;20207;-45
2023/10/23 02:01:58;;;;;;;1.73;1.55;;;22.60;44.20;;;;;;5010182;28;20204;-45
2023/10/23 02:04:24;;;;;;;1.80;1.70;;;22.60;44.20;;;;;;5009743;28;20616;-45
2023/10/23 02:06:51;;;;;;;3.38;1.67;;;22.60;44.20;;;;;;5011383;28;20660;-45
2023/10/23 02:09:17;;;;;;;2.00;1.90;;;22.60;44.20;;;;;;5008054;28;20715;-45
2023/10/23 02:11:44;;;;;;;1.60;1.50;;;22.60;44.30;;;;;;5010510;28;20213;-45
2023/10/23 02:14:10;;;;;;;2.17;1.73;;;22.60;44.30;;;;;;5011968;28;20529;-45
2023/10/23 02:16:36;;;;;;;2.05;1.77;;;22.60;44.30;;;;;;5010118;28;20211;-45
2023/10/23 02:19:03;;;;;;;3.22;1.80;;;22.60;44.20;;;;;;5010860;28;20574;-45
2023/10/23 02:21:29;;;;;;;1.73;1.63;;;22.60;44.30;;;;;;5008381;28;20199;-45
2023/10/23 02:23:56;;;;;;;2.65;1.80;;;22.60;44.30;;;;;;5008665;28;20226;-45
2023/10/23 02:26:22;;;;;;;2.33;1.80;;;22.60;44.30;;;;;;5005473;28;20203;-45
2023/10/23 02:28:49;;;;;;;2.70;1.52;;;22.60;44.30;;;;;;5009150;28;20387;-45
2023/10/23 02:31:15;;;;;;;3.13;1.70;;;22.60;44.30;;;;;;5007264;28;20200;-45
2023/10/23 02:33:41;;;;;;;1.70;1.60;;;22.60;44.30;;;;;;5011902;28;20227;-45
2023/10/23 02:36:08;;;;;;;1.95;1.42;;;22.60;44.30;;;;;;5012177;28;20207;-45
2023/10/23 02:38:34;;;;;;;1.60;1.50;;;22.60;44.30;;;;;;5008201;28;20296;-45
2023/10/23 02:41:01;;;;;;;2.35;1.65;;;22.60;44.30;;;;;;5007806;28;20202;-45
2023/10/23 02:43:27;;;;;;;2.20;1.45;;;22.60;44.40;;;;;;5010403;28;20269;-45
2023/10/23 02:45:53;;;;;;;2.20;1.55;;;22.60;44.40;;;;;;5010182;28;20211;-45
2023/10/23 02:48:20;;;;;;;1.70;1.60;;;22.60;44.30;;;;;;5009402;28;20246;-45
2023/10/23 02:50:46;;;;;;;2.17;1.85;;;22.60;44.40;;;;;;5011259;28;20562;-45
2023/10/23 02:53:13;;;;;;;1.90;1.50;;;22.60;44.40;;;;;;5010940;28;20695;-45
2023/10/23 02:55:39;;;;;;;2.05;1.70;;;22.60;44.30;;;;;;5003813;28;20213;-45
2023/10/23 02:58:06;;;;;;;1.80;1.63;;;22.60;44.40;;;;;;5008166;28;20211;-45
2023/10/23 03:00:32;;;;;;;2.53;1.40;;;22.60;44.40;;;;;;5007419;28;20207;-45
2023/10/23 03:02:58;;;;;;;2.83;1.50;;;22.60;44.40;;;;;;5010215;28;20254;-45
2023/10/23 03:05:25;;;;;;;2.25;2.05;;;22.60;44.40;;;;;;5011614;28;20210;-45
2023/10/23 03:07:52;;;;;;;1.40;1.30;;;22.60;44.40;;;;;;5010873;28;20206;-45
2023/10/23 03:10:18;;;;;;;2.63;1.90;;;22.60;44.40;;;;;;5010303;28;20210;-46
2023/10/23 03:12:44;;;;;;;2.05;1.67;;;22.60;44.60;;;;;;5011881;28;20229;-45
2023/10/23 03:15:11;;;;;;;1.77;1.65;;;22.60;44.60;;;;;;5008483;28;20200;-45
2023/10/23 03:17:38;;;;;;;2.22;1.77;;;22.60;44.50;;;;;;5010739;28;20671;-45
2023/10/23 03:20:04;;;;;;;1.67;1.58;;;22.60;44.40;;;;;;5009323;28;20681;-45
2023/10/23 03:22:31;;;;;;;1.70;1.60;;;22.60;44.50;;;;;;5010419;28;20223;-45
2023/10/23 03:24:59;;;;;;;2.53;1.90;;;22.60;44.50;;;;;;5011474;28;20687;-45
2023/10/23 03:27:26;;;;;;;1.73;1.63;;;22.60;44.50;;;;;;5010884;28;20214;-45
2023/10/23 03:29:52;;;;;;;1.60;1.50;;;22.60;44.50;;;;;;5010666;28;20245;-45
2023/10/23 03:32:19;;;;;;;2.45;1.45;;;22.60;44.50;;;;;;5008305;28;20232;-45
2023/10/23 03:34:45;;;;;;;2.42;1.63;;;22.60;44.50;;;;;;5009069;28;20547;-45
2023/10/23 03:37:11;;;;;;;1.83;1.40;;;22.60;44.50;;;;;;5005686;28;20667;-46
2023/10/23 03:39:38;;;;;;;2.08;1.60;;;22.60;44.50;;;;;;5008819;28;20226;-45
2023/10/23 03:42:05;;;;;;;2.28;1.70;;;22.60;44.50;;;;;;5014400;28;20222;-45
2023/10/23 03:44:31;;;;;;;2.17;1.38;;;22.60;44.60;;;;;;5010728;28;20208;-45
2023/10/23 03:46:58;;;;;;;1.80;1.50;;;22.60;44.50;;;;;;5014928;28;20208;-45
2023/10/23 03:49:24;;;;;;;1.65;1.48;;;22.60;44.60;;;;;;5009752;28;20231;-45
2023/10/23 03:51:50;;;;;;;1.65;1.50;;;22.60;44.70;;;;;;5014932;28;20223;-45
2023/10/23 03:54:17;;;;;;;2.25;1.50;;;22.60;44.60;;;;;;5015032;28;20569;-45
2023/10/23 03:56:43;;;;;;;2.50;1.73;;;22.60;44.60;;;;;;5012882;28;20206;-45
2023/10/23 03:59:10;;;;;;;2.88;1.70;;;22.60;44.60;;;;;;5013065;28;20209;-45
2023/10/23 04:01:36;;;;;;;2.00;1.90;;;22.60;45.30;;;;;;5013937;28;20223;-45
2023/10/23 04:04:03;;;;;;;2.40;1.60;;;22.60;44.60;;;;;;5012195;28;21101;-45
2023/10/23 04:06:29;;;;;;;1.70;1.60;;;22.60;44.60;;;;;;5009895;28;20661;-45
2023/10/23 04:08:55;;;;;;;3.92;1.38;;;22.60;44.60;;;;;;5014153;28;20235;-45
2023/10/23 04:11:22;;;;;;;1.65;1.55;;;22.60;44.60;;;;;;5010672;28;20211;-45
2023/10/23 04:13:48;;;;;;;2.33;2.13;;;22.60;44.60;;;;;;5012272;28;20239;-45
2023/10/23 04:16:15;;;;;;;1.60;1.50;;;22.60;44.70;;;;;;5010990;28;20204;-45
2023/10/23 04:18:42;;;;;;;2.30;1.60;;;22.60;44.60;;;;;;5013859;28;20608;-45
2023/10/23 04:21:08;;;;;;;1.98;1.60;;;22.60;44.60;;;;;;5010730;28;20682;-45
2023/10/23 04:23:35;;;;;;;1.85;1.73;;;22.60;44.60;;;;;;5011558;28;20206;-45
2023/10/23 04:26:01;;;;;;;1.83;1.55;;;22.60;44.60;;;;;;5013221;28;20203;-45
2023/10/23 04:28:28;;;;;;;2.42;1.85;;;22.60;44.60;;;;;;5013193;28;20645;-45
2023/10/23 04:30:55;;;;;;;1.70;1.52;;;22.60;44.60;;;;;;5011905;28;20656;-45
2023/10/23 04:33:23;;;;;;;3.80;1.83;;;22.60;44.60;;;;;;5011975;28;20226;-44
2023/10/23 04:35:49;;;;;;;2.60;1.70;;;22.60;44.60;;;;;;5006535;28;20206;-45
2023/10/23 04:38:16;;;;;;;2.17;1.80;;;22.60;44.60;;;;;;5013245;28;20211;-45
2023/10/23 04:40:42;;;;;;;1.92;1.80;;;22.60;44.60;;;;;;5009428;28;20199;-43
2023/10/23 04:43:10;;;;;;;1.70;1.60;;;22.60;44.60;;;;;;5010897;28;20223;-45
2023/10/23 04:45:36;;;;;;;1.55;1.33;;;22.60;44.60;;;;;;5008310;28;20203;-45
2023/10/23 04:48:03;;;;;;;3.35;1.40;;;22.60;44.70;;;;;;5010905;28;20229;-45
2023/10/23 04:50:29;;;;;;;1.92;1.73;;;22.60;44.60;;;;;;5009711;28;20310;-45
2023/10/23 04:52:56;;;;;;;1.70;1.60;;;22.60;44.60;;;;;;5013298;28;20591;-45
2023/10/23 04:55:22;;;;;;;1.73;1.45;;;22.60;44.60;;;;;;5012235;28;20676;-45
2023/10/23 04:57:49;;;;;;;3.72;1.70;;;22.60;44.70;;;;;;5011404;28;20203;-45
2023/10/23 05:00:15;;;;;;;1.52;1.42;;;22.60;44.70;;;;;;5011699;28;20218;-45
2023/10/23 05:02:42;;;;;;;2.67;1.77;;;22.60;44.70;;;;;;5011794;28;20226;-45
2023/10/23 05:05:09;;;;;;;2.67;1.85;;;22.60;44.60;;;;;;5011681;28;20229;-45
2023/10/23 05:07:35;;;;;;;2.38;1.70;;;22.60;44.70;;;;;;5012195;28;20235;-45
2023/10/23 05:10:04;;;;;;;3.28;1.83;;;22.60;44.60;;;;;;5012753;28;20242;-45
2023/10/23 05:12:30;;;;;;;2.75;1.50;;;22.60;44.70;;;;;;5007723;28;20238;-45
2023/10/23 05:14:56;;;;;;;1.50;1.40;;;22.60;44.60;;;;;;5011588;28;20208;-45
2023/10/23 05:17:24;;;;;;;2.28;1.50;;;22.60;44.60;;;;;;5013354;28;20211;-45
2023/10/23 05:19:50;;;;;;;4.75;1.70;;;22.60;44.60;;;;;;5012597;28;20203;-45
2023/10/23 05:22:17;;;;;;;2.08;1.60;;;22.60;44.60;;;;;;5013094;28;20235;-45
2023/10/23 05:24:43;;;;;;;2.25;1.60;;;22.60;44.60;;;;;;5011780;28;20207;-45
2023/10/23 05:27:10;;;;;;;1.40;1.30;;;22.60;44.60;;;;;;5013213;28;20203;-45
2023/10/23 05:29:35;;;;;;;2.05;1.40;;;22.60;44.70;;;;;;5011286;28;20328;-45
2023/10/23 05:32:02;;;;;;;3.10;1.50;;;22.60;44.70;;;;;;5004898;28;20597;-45
2023/10/23 05:34:28;;;;;;;1.67;1.58;;;22.60;44.70;;;;;;5010747;28;20203;-45
2023/10/23 05:36:55;;;;;;;2.95;1.50;;;22.60;44.60;;;;;;5012418;28;20211;-45
2023/10/23 05:39:21;;;;;;;1.80;1.50;;;22.60;44.70;;;;;;5010800;28;20222;-45
2023/10/23 05:41:48;;;;;;;2.33;1.50;;;22.60;44.60;;;;;;5012550;28;20223;-45
2023/10/23 05:44:14;;;;;;;2.35;1.45;;;22.60;44.70;;;;;;5010013;28;21179;-45
2023/10/23 05:46:41;;;;;;;2.00;1.70;;;22.60;44.60;;;;;;5008976;28;20674;-45
2023/10/23 05:49:07;;;;;;;2.33;1.60;;;22.60;44.60;;;;;;5010501;28;20219;-45
2023/10/23 05:51:33;;;;;;;2.55;1.38;;;22.60;44.60;;;;;;5012207;28;20235;-45
2023/10/23 05:54:00;;;;;;;1.85;1.50;;;22.60;44.60;;;;;;5012148;28;20207;-45
2023/10/23 05:56:26;;;;;;;2.28;1.45;;;22.60;44.60;;;;;;5011792;28;20218;-45
2023/10/23 05:58:53;;;;;;;1.65;1.50;;;22.60;44.60;;;;;;5011073;28;20204;-45
2023/10/23 06:01:19;;;;;;;2.28;1.75;;;22.60;44.60;;;;;;5007850;28;20229;-45
2023/10/23 06:03:46;;;;;;;1.85;1.50;;;22.60;45.00;;;;;;5005272;28;20217;-45
2023/10/23 06:06:13;;;;;;;2.88;1.60;;;22.50;44.80;;;;;;5006669;28;20671;-45
2023/10/23 06:08:39;;;;;;;1.88;1.20;;;22.50;44.90;;;;;;5001692;28;20241;-44
2023/10/23 06:11:06;;;;;;;2.95;1.63;;;22.50;45.00;;;;;;5010533;28;20226;-45
2023/10/23 06:13:32;;;;;;;2.00;1.60;;;22.50;45.00;;;;;;5011776;28;20226;-45
2023/10/23 06:16:02;;;;;;;3.17;1.70;;;22.50;44.90;;;;;;5012574;28;20640;-44
2023/10/23 06:18:28;;;;;;;1.73;1.30;;;22.50;44.90;;;;;;5008964;28;20398;-44
2023/10/23 06:20:55;;;;;;;2.67;1.45;;;22.50;45.00;;;;;;5010831;28;20203;-45
2023/10/23 06:23:21;;;;;;;2.30;1.40;;;22.50;45.00;;;;;;5005520;28;20578;-45
2023/10/23 06:25:47;;;;;;;2.83;1.50;;;22.50;45.10;;;;;;5010479;28;20690;-45
2023/10/23 06:28:14;;;;;;;2.00;1.77;;;22.40;44.90;;;;;;5011570;28;20206;-45
2023/10/23 06:30:40;;;;;;;1.75;1.50;;;22.40;44.90;;;;;;5010476;28;20235;-45
2023/10/23 06:33:07;;;;;;;2.42;1.90;;;22.40;44.90;;;;;;5011607;28;20215;-45
2023/10/23 06:35:33;;;;;;;1.95;1.77;;;22.40;44.90;;;;;;5011759;28;20561;-45
2023/10/23 06:38:00;;;;;;;3.17;1.60;;;22.50;44.90;;;;;;5001376;28;20203;-38
2023/10/23 06:40:26;;;;;;;2.47;1.60;;;22.50;45.30;;;;;;5012380;28;20555;-37
2023/10/23 06:42:52;;;;;;;3.72;1.63;;;22.50;45.10;;;;;;5012775;28;20687;-38
2023/10/23 06:45:19;;;;;;;2.33;1.70;;;22.50;45.10;;;;;;5011724;28;20207;-38
2023/10/23 06:47:45;;;;;;;4.35;1.88;;;22.50;44.90;;;;;;5017034;28;20199;-39
2023/10/23 06:50:13;;;;;;;2.10;1.63;;;22.60;44.90;;;;;;5008653;28;20223;-39
2023/10/23 06:52:40;;;;;;;2.72;1.70;;;22.50;45.00;;;;;;5009606;28;20729;-41
2023/10/23 06:55:06;;;;;;;4.07;1.77;;;22.50;45.00;;;;;;5011874;28;20206;-40
2023/10/23 06:57:32;;;;;;;2.13;1.80;;;22.50;45.00;;;;;;5010080;28;20209;-40
2023/10/23 06:59:59;;;;;;;4.07;1.55;;;22.50;45.10;;;;;;5002085;28;20211;-40
2023/10/23 07:02:25;;;;;;;3.38;1.48;;;22.50;45.00;;;;;;5001268;28;20227;-39
2023/10/23 07:04:52;;;;;;;4.15;1.90;;;22.50;45.00;;;;;;5004973;28;20210;-40
2023/10/23 07:07:18;;;;;;;2.50;1.52;;;22.50;45.00;;;;;;5006347;28;20614;-40
2023/10/23 07:09:45;;;;;;;3.08;1.67;;;22.50;44.90;;;;;;5001372;28;20234;-40
2023/10/23 07:12:12;;;;;;;3.65;1.60;;;22.50;45.00;;;;;;5007701;28;20280;-40
2023/10/23 07:14:38;;;;;;;2.20;1.70;;;22.50;44.80;;;;;;5007102;28;20207;-42
2023/10/23 07:17:04;;;;;;;2.63;1.88;;;22.50;44.50;;;;;;5010609;28;20718;-42
2023/10/23 07:19:31;;;;;;;5.13;1.95;;;22.50;44.10;;;;;;5012508;28;20211;-44
2023/10/23 07:21:57;;;;;;;6.15;2.55;;;21.80;40.00;;;;;;4997641;28;20699;-45
2023/10/23 07:24:24;;;;;;;5.13;1.92;;;21.70;42.10;;;;;;5003598;28;20210;-44
2023/10/23 07:26:50;;;;;;;2.72;1.80;;;21.80;41.50;;;;;;5012021;28;20207;-44
2023/10/23 07:29:17;;;;;;;6.22;2.20;;;22.00;42.10;;;;;;5011047;28;20223;-45
2023/10/23 07:31:43;;;;;;;2.80;2.10;;;22.10;42.40;;;;;;5011907;28;20223;-44
2023/10/23 07:34:10;;;;;;;4.00;2.35;;;22.10;42.50;;;;;;5014479;28;20202;-44
2023/10/23 07:36:37;;;;;;;5.63;2.10;;;22.20;42.70;;;;;;5014250;28;20200;-44
2023/10/23 07:39:03;;;;;;;4.00;1.95;;;22.20;42.80;;;;;;5013100;28;20660;-44
2023/10/23 07:41:30;;;;;;;4.72;2.20;;;22.20;42.90;;;;;;5014846;28;20219;-44
2023/10/23 07:43:57;;;;;;;4.43;2.22;;;22.20;42.90;;;;;;5014453;28;20683;-44
2023/10/23 07:46:23;;;;;;;2.13;1.83;;;22.20;42.90;;;;;;5011255;28;20204;-44
2023/10/23 07:48:49;;;;;;;3.40;2.75;;;22.20;42.90;;;;;;5010457;28;20199;-44
2023/10/23 07:51:16;;;;;;;2.55;1.73;;;22.20;43.00;;;;;;5012616;28;20408;-44
2023/10/23 07:53:42;;;;;;;3.03;1.83;;;22.20;43.00;;;;;;5004072;28;20201;-47
2023/10/23 07:56:09;;;;;;;4.75;1.85;;;22.20;42.80;;;;;;5010209;28;20203;-44
2023/10/23 07:58:35;;;;;;;2.78;2.00;;;22.30;42.80;;;;;;5010174;28;20203;-39
2023/10/23 08:01:04;;;;;;;3.63;1.98;;;22.30;42.90;;;;;;5006025;28;20227;-41
2023/10/23 08:03:30;;;;;;;3.45;1.60;;;22.40;42.70;;;;;;5009317;28;20901;-38
2023/10/23 08:05:57;;;;;;;2.25;1.80;;;22.40;42.70;;;;;;5009064;28;20210;-39
2023/10/23 08:08:23;;;;;;;3.42;2.10;;;22.30;42.70;;;;;;5013582;28;20207;-39
2023/10/23 08:10:50;;;;;;;2.08;1.80;;;22.30;42.60;;;;;;5005327;28;20235;-38
2023/10/23 08:13:16;;;;;;;2.28;1.63;;;22.30;42.70;;;;;;5011275;28;20211;-38
2023/10/23 08:15:43;;;;;;;2.35;1.67;;;22.30;42.90;;;;;;5013248;28;20204;-41
2023/10/23 08:18:10;;;;;;;2.55;1.90;;;22.40;42.80;;;;;;5013962;28;20200;-38
2023/10/23 08:20:36;;;;;;;2.63;1.52;;;22.40;42.80;;;;;;5013042;28;20223;-43
2023/10/23 08:23:03;;;;;;;2.75;1.95;;;22.40;42.70;;;;;;5008893;28;20203;-44
2023/10/23 08:25:29;;;;;;;3.35;1.80;;;22.30;42.50;;;;;;5011488;28;20199;-38
2023/10/23 08:27:55;;;;;;;2.20;1.60;;;22.30;42.00;;;;;;5011052;28;20205;-38
2023/10/23 08:30:22;;;;;;;2.17;1.50;;;22.30;41.40;;;;;;5004458;28;20238;-38
2023/10/23 08:32:49;;;;;;;2.22;1.55;;;22.20;41.30;;;;;;5006985;28;20292;-38
2023/10/23 08:35:15;;;;;;;2.63;1.83;;;22.20;41.30;;;;;;5014184;28;20209;-38
2023/10/23 08:37:41;;;;;;;2.33;1.70;;;22.30;41.50;;;;;;5013194;28;20203;-38
2023/10/23 08:40:08;;;;;;;2.15;1.48;;;22.30;41.80;;;;;;5010494;28;20219;-38
2023/10/23 08:42:34;;;;;;;2.55;1.58;;;22.30;41.80;;;;;;5009703;28;20212;-38
2023/10/23 08:45:01;;;;;;;2.58;1.42;;;22.30;41.80;;;;;;5012013;28;20205;-38
2023/10/23 08:47:27;;;;;;;1.88;1.60;;;22.40;42.20;;;;;;5009571;28;20210;-38
2023/10/23 08:49:56;;;;;;;1.60;1.50;;;22.40;42.20;;;;;;5011027;28;20223;-38
2023/10/23 08:52:23;;;;;;;1.60;1.40;;;22.40;42.50;;;;;;5010897;28;20211;-38
2023/10/23 08:54:49;;;;;;;1.40;1.30;;;22.40;41.90;;;;;;5009548;28;20672;-38
2023/10/23 08:57:16;;;;;;;1.70;1.60;;;22.50;42.40;;;;;;5004777;28;20211;-40
2023/10/23 08:59:42;;;;;;;2.78;1.67;;;22.50;41.70;;;;;;5006541;28;20249;-39
2023/10/23 09:02:09;;;;;;;1.83;1.55;;;22.60;41.70;;;;;;5011648;28;20485;-43
2023/10/23 09:04:34;;;;;;;2.63;1.63;;;22.60;41.70;;;;;;5011119;28;20206;-38
2023/10/23 09:07:01;;;;;;;2.05;1.80;;;22.60;41.80;;;;;;5011737;28;20199;-37
2023/10/23 09:09:28;;;;;;;1.60;1.45;;;22.60;41.70;;;;;;5011254;28;20567;-40
2023/10/23 09:11:55;;;;;;;1.40;1.13;;;22.60;42.00;;;;;;5009776;28;20317;-42
2023/10/23 09:14:21;;;;;;;1.92;1.42;;;22.60;42.40;;;;;;4988003;28;20617;-38
2023/10/23 09:16:47;;;;;;;1.92;1.48;;;22.50;42.30;;;;;;5014639;28;20581;-39
2023/10/23 09:19:14;;;;;;;1.50;1.40;;;22.60;42.50;;;;;;5012785;28;20668;-42
2023/10/23 09:21:40;;;;;;;3.00;1.40;;;22.60;42.30;;;;;;5012400;28;20238;-38
2023/10/23 09:24:07;;;;;;;1.45;1.33;;;22.60;42.20;;;;;;5013177;28;20214;-37
2023/10/23 09:26:33;;;;;;;1.60;1.50;;;22.60;42.30;;;;;;5011873;28;20210;-38
2023/10/23 09:28:59;;;;;;;1.58;1.40;;;22.60;42.20;;;;;;5011447;28;20211;-40
2023/10/23 09:31:26;;;;;;;1.35;1.25;;;22.60;42.20;;;;;;5009273;28;20247;-43
2023/10/23 09:33:52;;;;;;;1.55;1.25;;;22.60;42.90;;;;;;5012764;28;20215;-39
2023/10/23 09:36:19;;;;;;;2.20;1.40;;;22.60;42.30;;;;;;5007192;28;20441;-38
2023/10/23 09:38:45;;;;;;;1.60;1.48;;;22.60;42.30;;;;;;5012248;28;20585;-38
2023/10/23 09:41:12;;;;;;;1.52;1.38;;;22.70;42.30;;;;;;5008367;28;20606;-39
2023/10/23 09:43:38;;;;;;;2.65;1.58;;;22.60;42.20;;;;;;5010240;28;20203;-38
2023/10/23 09:46:04;;;;;;;1.30;1.20;;;22.70;42.20;;;;;;5008221;28;20208;-38
2023/10/23 09:48:31;;;;;;;1.50;1.23;;;22.70;42.20;;;;;;5010353;28;20207;-39
2023/10/23 09:50:57;;;;;;;1.98;1.50;;;22.60;42.00;;;;;;5011180;28;20226;-45
2023/10/23 09:53:24;;;;;;;1.60;1.27;;;22.60;42.10;;;;;;5012096;28;20578;-45
2023/10/23 09:55:50;;;;;;;2.15;1.80;;;22.60;42.10;;;;;;5010246;28;20196;-42
2023/10/23 09:58:17;;;;;;;3.85;1.40;;;22.60;41.70;;;;;;5010684;28;20206;-41
2023/10/23 10:00:43;;;;;;;2.70;1.42;;;22.70;41.80;;;;;;4996815;28;20595;-45
2023/10/23 10:03:09;;;;;;;3.40;1.52;;;22.60;41.70;;;;;;4992938;28;20759;-43
2023/10/23 10:05:36;;;;;;;1.58;1.48;;;22.60;41.70;;;;;;4994651;28;20925;-47
2023/10/23 10:08:03;;;;;;;1.17;1.08;;;22.60;41.70;;;;;;4993397;28;20227;-44
2023/10/23 10:10:29;;;;;;;1.58;1.23;;;22.70;41.80;;;;;;4992296;28;20227;-42
2023/10/23 10:12:56;;;;;;;1.17;1.08;;;22.60;40.80;;;;;;5000299;28;20198;-45
2023/10/23 10:15:22;;;;;;;1.40;1.10;;;22.50;41.20;;;;;;4995808;28;20199;-45
2023/10/23 10:17:49;;;;;;;1.55;1.13;;;22.60;41.10;;;;;;4996270;28;20199;-52
2023/10/23 10:20:15;;;;;;;1.20;1.10;;;22.60;41.60;;;;;;4994885;28;20219;-41
2023/10/23 10:22:42;;;;;;;1.90;1.25;;;22.70;41.80;;;;;;4992296;28;20203;-45
2023/10/23 10:25:09;;;;;;;1.20;1.10;;;22.60;41.70;;;;;;4992698;28;20195;-41
2023/10/23 10:27:36;;;;;;;2.00;1.20;;;22.70;41.80;;;;;;4992218;28;20616;-36
2023/10/23 10:30:04;;;;;;;1.30;1.20;;;22.70;41.80;;;;;;5001952;28;20709;-35
2023/10/23 10:32:30;;;;;;;1.25;1.15;;;22.70;41.80;;;;;;5010256;28;20215;-38
2023/10/23 10:34:57;;;;;;;2.22;1.40;;;22.70;41.80;;;;;;5011874;28;20217;-36
2023/10/23 10:37:23;;;;;;;3.42;1.23;;;22.70;41.80;;;;;;5008251;28;20207;-41
2023/10/23 10:39:50;;;;;;;1.40;1.25;;;22.70;41.80;;;;;;5008522;28;20240;-41
2023/10/23 10:42:17;;;;;;;2.78;1.15;;;22.70;42.20;;;;;;5010091;28;20215;-40
2023/10/23 10:44:43;;;;;;;2.28;1.30;;;22.70;42.20;;;;;;5010096;28;20209;-42
2023/10/23 10:47:10;;;;;;;1.20;1.10;;;22.70;42.20;;;;;;5005662;28;20257;-42
2023/10/23 10:49:36;;;;;;;1.23;1.10;;;22.70;42.50;;;;;;5008829;28;20570;-41
2023/10/23 10:52:02;;;;;;;1.50;1.13;;;22.70;42.30;;;;;;5009471;28;20656;-39
2023/10/23 10:54:29;;;;;;;1.48;1.17;;;22.70;42.20;;;;;;5007313;28;20210;-45
2023/10/23 10:56:55;;;;;;;1.30;1.20;;;22.70;42.30;;;;;;5011223;28;20203;-45
2023/10/23 10:59:24;;;;;;;1.70;1.15;;;22.70;42.30;;;;;;5008411;28;20217;-45
2023/10/23 11:01:50;;;;;;;1.85;1.20;;;22.60;42.20;;;;;;5008827;28;20275;-45
2023/10/23 11:04:17;;;;;;;1.30;1.20;;;22.60;42.10;;;;;;5005445;28;20218;-45
2023/10/23 11:06:43;;;;;;;1.52;1.42;;;22.60;42.10;;;;;;5009860;28;20257;-45
2023/10/23 11:09:11;;;;;;;1.50;1.20;;;22.60;42.00;;;;;;5009672;28;20203;-49
2023/10/23 11:11:37;;;;;;;1.75;1.20;;;22.60;41.70;;;;;;5009841;28;20235;-47
2023/10/23 11:14:04;;;;;;;2.28;1.50;;;22.70;41.80;;;;;;5009150;28;20219;-46
2023/10/23 11:16:30;;;;;;;1.33;1.23;;;22.80;41.70;;;;;;5008807;28;20214;-46
2023/10/23 11:18:57;;;;;;;1.45;1.35;;;22.80;41.50;;;;;;5010773;28;20206;-47
2023/10/23 11:21:23;;;;;;;1.30;1.20;;;22.80;41.40;;;;;;5008274;28;20227;-46
2023/10/23 11:23:50;;;;;;;1.38;1.27;;;22.90;41.50;;;;;;5009220;28;20207;-46
2023/10/23 11:26:17;;;;;;;1.15;1.08;;;22.90;41.60;;;;;;5011223;28;20215;-45
2023/10/23 11:28:43;;;;;;;2.45;1.60;;;22.90;41.60;;;;;;5010175;28;20199;-47
2023/10/23 11:31:10;;;;;;;1.83;1.25;;;22.90;41.60;;;;;;5007730;28;20330;-49
2023/10/23 11:33:36;;;;;;;2.38;1.60;;;22.90;41.70;;;;;;5009181;28;20203;-48
2023/10/23 11:36:04;;;;;;;1.65;1.20;;;22.90;41.70;;;;;;5010911;28;20290;-48
2023/10/23 11:38:30;;;;;;;1.83;1.30;;;22.90;41.80;;;;;;5009484;28;20218;-47
2023/10/23 11:40:57;;;;;;;1.50;1.23;;;22.90;41.90;;;;;;5009217;28;20215;-47
2023/10/23 11:43:23;;;;;;;3.28;1.30;;;22.90;41.90;;;;;;5011148;28;20302;-46
2023/10/23 11:45:50;;;;;;;1.50;1.40;;;22.90;41.90;;;;;;5008154;28;20289;-45
2023/10/23 11:48:16;;;;;;;1.45;1.13;;;22.80;41.80;;;;;;5007891;28;20235;-46
2023/10/23 11:50:43;;;;;;;1.60;1.40;;;22.80;41.80;;;;;;5009148;28;20691;-48
2023/10/23 11:53:09;;;;;;;1.70;1.45;;;22.80;41.80;;;;;;5010717;28;20590;-46
2023/10/23 11:55:36;;;;;;;1.83;1.33;;;22.80;41.80;;;;;;5011465;28;20598;-46
2023/10/23 11:58:03;;;;;;;1.90;1.25;;;22.80;41.80;;;;;;5009099;28;20553;-46
2023/10/23 12:00:30;;;;;;;1.35;1.25;;;22.80;41.80;;;;;;5008877;28;20738;-46
2023/10/23 12:02:56;;;;;;;1.88;1.40;;;22.80;41.80;;;;;;5012416;28;20204;-47
2023/10/23 12:05:23;;;;;;;1.70;1.30;;;22.80;41.90;;;;;;5010723;28;20203;-47
2023/10/23 12:07:49;;;;;;;2.97;1.40;;;22.80;41.90;;;;;;5012195;28;20210;-47
2023/10/23 12:10:16;;;;;;;3.17;1.60;;;22.80;41.90;;;;;;5009187;28;22188;-45
2023/10/23 12:12:43;;;;;;;1.40;1.30;;;22.80;41.90;;;;;;5009866;28;20697;-46
2023/10/23 12:15:09;;;;;;;1.45;1.20;;;22.80;42.50;;;;;;5012843;28;20298;-46
2023/10/23 12:17:36;;;;;;;1.27;1.20;;;22.80;41.90;;;;;;5011513;28;20635;-47
2023/10/23 12:20:07;;;;;;;1.98;1.25;;;22.80;41.90;;;;;;5011032;28;20590;-45
2023/10/23 12:22:33;;;;;;;2.28;1.30;;;22.80;41.80;;;;;;5014043;28;20290;-46
2023/10/23 12:24:59;;;;;;;1.20;1.10;;;22.80;41.90;;;;;;5010137;28;20210;-46
2023/10/23 12:27:26;;;;;;;2.35;1.40;;;22.80;41.90;;;;;;5008051;28;20205;-46
2023/10/23 12:29:52;;;;;;;1.55;1.30;;;22.80;41.90;;;;;;5010973;28;20229;-36
2023/10/23 12:32:19;;;;;;;2.83;1.75;;;22.80;41.90;;;;;;5012240;28;20262;-36
2023/10/23 12:34:45;;;;;;;3.17;2.15;;;22.70;41.80;;;;;;5012701;28;20203;-36
2023/10/23 12:37:12;;;;;;;4.38;2.60;;;22.70;41.80;;;;;;5011558;28;20199;-36
2023/10/23 12:39:38;;;;;;;5.93;3.08;;;22.60;41.70;;;;;;5007353;28;20322;-36
2023/10/23 12:42:04;;;;;;;4.68;2.67;;;22.60;42.00;;;;;;5011664;28;20207;-37
2023/10/23 12:44:31;;;;;;;4.70;2.75;;;22.60;42.30;;;;;;5011131;28;20205;-36